Time;durP1;ratioP1;P1;durP2;ratioP2;P2;SDS_P1;SDS_P2;PMS_P1;PMS_P2;Temp;Humidity;BMP_temperature;BMP_pressure;BME280_temperature;BME280_humidity;BME280_pressure;Samples;Min_cycle;Max_cycle;Signal;HPM_P1;HPM_P2
2022/10/30 00:00:48;;;;;;;;;;;11.90;99.90;;;;;;5003334;28;20008;-76
2022/10/30 00:03:17;;;;;;;;;;;12.00;99.90;;;;;;5003416;28;19918;-76
2022/10/30 00:05:44;;;;;;;;;;;12.00;99.90;;;;;;5003597;28;20593;-77
2022/10/30 00:08:12;;;;;;;;;;;12.00;99.90;;;;;;5005836;28;19914;-77
2022/10/30 00:10:40;;;;;;;;;;;12.00;99.90;;;;;;5003791;28;19914;-76
2022/10/30 00:13:07;;;;;;;;;;;12.00;99.90;;;;;;5001010;28;19910;-76
2022/10/30 00:15:32;;;;;;;;;;;12.00;99.90;;;;;;5001190;28;19917;-76
2022/10/30 00:18:02;;;;;;;;;;;12.10;99.90;;;;;;5008142;28;19913;-75
2022/10/30 00:20:28;;;;;;;;;;;11.90;99.90;;;;;;4999618;28;20326;-75
2022/10/30 00:22:55;;;;;;;;;;;11.80;99.90;;;;;;5005588;28;19945;-76
2022/10/30 00:25:22;;;;;;;;;;;11.80;99.90;;;;;;5002221;28;19914;-76
2022/10/30 00:27:48;;;;;;;;;;;11.80;99.90;;;;;;5004555;28;19963;-76
2022/10/30 00:30:21;;;;;;;;;;;11.90;99.90;;;;;;5000028;28;19917;-76
2022/10/30 00:32:49;;;;;;;;;;;11.90;99.90;;;;;;4998938;28;19958;-75
2022/10/30 00:35:17;;;;;;;;;;;11.90;99.90;;;;;;5001233;28;19977;-75
2022/10/30 00:37:49;;;;;;;;;;;12.00;99.90;;;;;;5000421;28;19917;-76
2022/10/30 00:40:15;;;;;;;;;;;12.00;99.90;;;;;;5000614;28;19929;-76
2022/10/30 00:42:52;;;;;;;;;;;11.90;99.90;;;;;;4999627;28;19913;-75
2022/10/30 00:45:18;;;;;;;;;;;11.90;99.90;;;;;;5003407;28;19949;-76
2022/10/30 00:47:53;;;;;;;;;;;11.90;99.90;;;;;;5009787;28;19925;-76
2022/10/30 00:50:25;;;;;;;;;;;11.80;99.90;;;;;;4990202;28;20008;-76
2022/10/30 00:53:01;;;;;;;;;;;11.90;99.90;;;;;;4985221;28;19913;-76
2022/10/30 00:55:30;;;;;;;;;;;11.90;99.90;;;;;;5010886;28;19913;-75
2022/10/30 00:58:01;;;;;;;;;;;12.00;99.90;;;;;;4985456;28;19914;-76
2022/10/30 01:00:28;;;;;;;;;;;12.00;99.90;;;;;;4998957;28;19920;-76
2022/10/30 01:02:54;;;;;;;;;;;11.90;99.90;;;;;;5007015;28;19945;-76
2022/10/30 01:05:22;;;;;;;;;;;11.80;99.90;;;;;;4980874;28;19909;-76
2022/10/30 01:07:48;;;;;;;;;;;11.70;99.90;;;;;;4983989;28;19960;-76
2022/10/30 01:10:16;;;;;;;;;;;11.70;99.90;;;;;;5002708;28;19914;-76
2022/10/30 01:12:43;;;;;;;;;;;11.80;99.90;;;;;;5005616;28;19918;-76
2022/10/30 01:15:09;;;;;;;;;;;11.90;99.90;;;;;;5004323;28;19914;-76
2022/10/30 01:17:54;;;;;;;;;;;11.90;99.90;;;;;;4996015;28;19968;-77
2022/10/30 01:20:39;;;;;;;;;;;12.00;99.90;;;;;;5007808;28;20355;-76
2022/10/30 01:23:10;;;;;;;;;;;12.00;99.90;;;;;;4998952;28;19918;-76
2022/10/30 01:25:46;;;;;;;;;;;12.00;99.90;;;;;;4999285;28;20004;-77
2022/10/30 01:28:34;;;;;;;;;;;12.00;99.90;;;;;;5007326;28;19918;-76
2022/10/30 01:31:18;;;;;;;;;;;12.00;99.90;;;;;;4998023;28;19988;-76
2022/10/30 01:33:54;;;;;;;;;;;12.00;99.90;;;;;;5007749;28;19952;-75
2022/10/30 01:36:26;;;;;;;;;;;12.10;99.90;;;;;;4986165;28;19909;-75
2022/10/30 01:39:17;;;;;;;;;;;12.10;99.90;;;;;;5000407;28;19915;-76
2022/10/30 01:41:47;;;;;;;;;;;12.10;99.90;;;;;;4999466;28;19930;-76
2022/10/30 01:44:34;;;;;;;;;;;12.00;99.90;;;;;;4999940;28;20310;-76
2022/10/30 01:47:33;;;;;;;;;;;12.00;99.90;;;;;;5002347;28;20008;-76
2022/10/30 01:50:04;;;;;;;;;;;12.00;99.90;;;;;;4962454;28;19933;-76
2022/10/30 01:52:38;;;;;;;;;;;12.10;99.90;;;;;;4998981;28;19996;-76
2022/10/30 01:55:06;;;;;;;;;;;12.00;99.90;;;;;;4997060;28;20385;-76
2022/10/30 01:57:51;;;;;;;;;;;12.00;99.90;;;;;;4996660;28;19925;-76
2022/10/30 02:00:19;;;;;;;;;;;11.80;99.90;;;;;;4999994;28;19917;-76
2022/10/30 02:02:47;;;;;;;;;;;11.80;99.90;;;;;;4998444;28;19918;-76
2022/10/30 02:05:26;;;;;;;;;;;11.80;99.90;;;;;;5001483;28;20029;-76
2022/10/30 02:07:53;;;;;;;;;;;11.90;99.90;;;;;;5006343;28;20617;-75
2022/10/30 02:10:20;;;;;;;;;;;11.90;99.90;;;;;;5000966;28;20535;-76
2022/10/30 02:12:46;;;;;;;;;;;11.90;99.90;;;;;;5001838;28;19948;-75
2022/10/30 02:15:13;;;;;;;;;;;11.90;99.90;;;;;;4999692;28;19953;-76
2022/10/30 02:17:40;;;;;;;;;;;11.90;99.90;;;;;;4986106;28;20386;-76
2022/10/30 02:20:06;;;;;;;;;;;11.80;99.90;;;;;;4987373;28;20016;-76
2022/10/30 02:22:32;;;;;;;;;;;11.70;99.90;;;;;;5004947;28;19909;-76
2022/10/30 02:25:02;;;;;;;;;;;11.80;99.90;;;;;;4997111;28;20960;-76
2022/10/30 02:27:27;;;;;;;;;;;11.80;99.90;;;;;;4997018;28;19910;-76
2022/10/30 02:29:56;;;;;;;;;;;11.80;99.90;;;;;;4994595;28;19921;-75
2022/10/30 02:32:22;;;;;;;;;;;11.80;99.90;;;;;;5002472;28;19914;-76
2022/10/30 02:34:57;;;;;;;;;;;11.80;99.90;;;;;;4991364;28;19913;-76
2022/10/30 02:37:26;;;;;;;;;;;11.80;99.90;;;;;;5001032;28;20478;-76
2022/10/30 02:39:52;;;;;;;;;;;11.80;99.90;;;;;;4998331;28;19999;-76
2022/10/30 02:42:22;;;;;;;;;;;11.90;99.90;;;;;;4996700;28;19932;-76
2022/10/30 02:44:49;;;;;;;;;;;11.90;99.90;;;;;;4998317;28;19916;-75
2022/10/30 02:47:15;;;;;;;;;;;11.90;99.90;;;;;;4997393;28;20004;-76
2022/10/30 02:49:42;;;;;;;;;;;11.90;99.90;;;;;;5009224;28;20036;-76
2022/10/30 02:52:11;;;;;;;;;;;11.90;99.90;;;;;;5005458;28;19913;-76
2022/10/30 02:54:36;;;;;;;;;;;11.90;99.90;;;;;;4995837;28;19967;-76
2022/10/30 02:57:10;;;;;;;;;;;11.90;99.90;;;;;;5004833;28;19913;-76
2022/10/30 02:59:38;;;;;;;;;;;11.90;99.90;;;;;;5001149;28;19956;-75
2022/10/30 03:02:04;;;;;;;;;;;11.90;99.90;;;;;;4997056;28;19917;-76
2022/10/30 03:04:31;;;;;;;;;;;11.80;99.90;;;;;;4984476;28;19909;-77
2022/10/30 03:06:56;;;;;;;;;;;11.80;99.90;;;;;;4997668;28;20513;-76
2022/10/30 03:09:31;;;;;;;;;;;11.80;99.90;;;;;;4997812;28;19909;-75
2022/10/30 03:11:58;;;;;;;;;;;11.80;99.90;;;;;;5003509;28;19988;-76
2022/10/30 03:14:24;;;;;;;;;;;11.70;99.90;;;;;;4992680;28;19913;-76
2022/10/30 03:16:52;;;;;;;;;;;11.80;99.90;;;;;;5001140;28;19909;-76
2022/10/30 03:19:19;;;;;;;;;;;11.80;99.90;;;;;;4996696;28;19932;-76
2022/10/30 03:21:56;;;;;;;;;;;11.80;99.90;;;;;;4983908;28;19999;-76
2022/10/30 03:24:23;;;;;;;;;;;11.80;99.90;;;;;;5001880;28;20318;-75
2022/10/30 03:26:49;;;;;;;;;;;11.80;99.90;;;;;;4997765;28;19916;-75
2022/10/30 03:29:19;;;;;;;;;;;11.80;99.90;;;;;;4999617;28;20534;-76
2022/10/30 03:31:45;;;;;;;;;;;11.70;99.90;;;;;;5004085;28;20281;-76
2022/10/30 03:34:11;;;;;;;;;;;11.70;99.90;;;;;;5003949;28;20000;-76
2022/10/30 03:36:38;;;;;;;;;;;11.70;99.90;;;;;;5001432;28;20134;-76
2022/10/30 03:39:07;;;;;;;;;;;11.60;99.90;;;;;;4995401;28;19992;-76
2022/10/30 03:41:32;;;;;;;;;;;11.60;99.90;;;;;;4997550;28;19928;-76
2022/10/30 03:44:00;;;;;;;;;;;11.60;99.90;;;;;;4993280;28;19910;-76
2022/10/30 03:46:26;;;;;;;;;;;11.70;99.90;;;;;;4996961;28;20362;-76
2022/10/30 03:48:53;;;;;;;;;;;11.70;99.90;;;;;;4997667;28;19910;-76
2022/10/30 03:51:20;;;;;;;;;;;11.70;99.90;;;;;;4997196;28;19913;-76
2022/10/30 03:53:48;;;;;;;;;;;11.80;99.90;;;;;;4997955;28;19914;-76
2022/10/30 03:56:14;;;;;;;;;;;11.80;99.90;;;;;;4995875;28;19917;-75
2022/10/30 03:58:42;;;;;;;;;;;11.70;99.90;;;;;;5004817;28;19949;-76
2022/10/30 04:01:12;;;;;;;;;;;11.60;99.90;;;;;;5000586;28;19929;-76
2022/10/30 04:03:37;;;;;;;;;;;11.50;99.90;;;;;;5005359;28;19928;-76
2022/10/30 04:06:08;;;;;;;;;;;11.40;99.90;;;;;;4999711;28;19917;-76
2022/10/30 04:08:38;;;;;;;;;;;11.40;99.90;;;;;;4997622;28;19918;-76
2022/10/30 04:11:12;;;;;;;;;;;11.40;99.90;;;;;;4999668;28;19948;-75
2022/10/30 04:13:37;;;;;;;;;;;11.40;99.90;;;;;;4996385;28;19917;-76
2022/10/30 04:16:05;;;;;;;;;;;11.40;99.90;;;;;;5007669;28;20511;-76
2022/10/30 04:18:33;;;;;;;;;;;11.40;99.90;;;;;;5002300;28;20716;-76
2022/10/30 04:21:01;;;;;;;;;;;11.40;99.90;;;;;;5006293;28;19996;-75
2022/10/30 04:23:31;;;;;;;;;;;11.40;99.90;;;;;;4986747;28;19910;-76
2022/10/30 04:25:58;;;;;;;;;;;11.40;99.90;;;;;;4996619;28;20354;-76
2022/10/30 04:28:25;;;;;;;;;;;11.40;99.90;;;;;;5005898;28;19921;-76
2022/10/30 04:30:51;;;;;;;;;;;11.40;99.90;;;;;;4994813;28;19947;-76
2022/10/30 04:33:16;;;;;;;;;;;11.40;99.90;;;;;;5005650;28;19937;-76
2022/10/30 04:35:44;;;;;;;;;;;11.50;99.90;;;;;;4996653;28;19925;-76
2022/10/30 04:38:18;;;;;;;;;;;11.50;99.90;;;;;;5010570;28;19917;-76
2022/10/30 04:40:44;;;;;;;;;;;11.50;99.90;;;;;;5005583;28;20811;-78
2022/10/30 04:43:14;;;;;;;;;;;11.50;99.90;;;;;;5005246;28;19940;-76
2022/10/30 04:45:41;;;;;;;;;;;11.50;99.90;;;;;;5009490;28;19924;-76
2022/10/30 04:48:15;;;;;;;;;;;11.50;99.90;;;;;;4995145;28;19935;-76
2022/10/30 04:50:41;;;;;;;;;;;11.50;99.90;;;;;;5006473;28;19910;-76
2022/10/30 04:53:09;;;;;;;;;;;11.50;99.90;;;;;;4999857;28;21113;-76
2022/10/30 04:55:41;;;;;;;;;;;11.50;99.90;;;;;;5000100;28;19920;-76
2022/10/30 04:58:12;;;;;;;;;;;11.50;99.90;;;;;;5003613;28;19924;-76
2022/10/30 05:00:40;;;;;;;;;;;11.40;99.90;;;;;;4998373;28;19927;-76
2022/10/30 05:03:14;;;;;;;;;;;11.30;99.90;;;;;;4988437;28;19922;-76
2022/10/30 05:05:39;;;;;;;;;;;11.30;99.90;;;;;;4998956;28;19922;-76
2022/10/30 05:08:07;;;;;;;;;;;11.30;99.90;;;;;;4999666;28;19924;-76
2022/10/30 05:10:37;;;;;;;;;;;11.30;99.90;;;;;;5002063;28;19924;-77
2022/10/30 05:13:05;;;;;;;;;;;11.30;99.90;;;;;;4999306;28;20071;-77
2022/10/30 05:15:32;;;;;;;;;;;11.30;99.90;;;;;;4998708;28;19917;-76
2022/10/30 05:17:58;;;;;;;;;;;11.30;99.90;;;;;;4999953;28;19948;-76
2022/10/30 05:20:23;;;;;;;;;;;11.30;99.90;;;;;;4999461;28;19968;-77
2022/10/30 05:22:54;;;;;;;;;;;11.30;99.90;;;;;;5003753;28;19917;-76
2022/10/30 05:25:20;;;;;;;;;;;11.30;99.90;;;;;;5001306;28;20589;-77
2022/10/30 05:27:59;;;;;;;;;;;11.30;99.90;;;;;;5000551;28;19949;-76
2022/10/30 05:30:26;;;;;;;;;;;11.20;99.90;;;;;;5005384;28;19953;-76
2022/10/30 05:32:56;;;;;;;;;;;11.20;99.90;;;;;;4998946;28;19956;-76
2022/10/30 05:35:23;;;;;;;;;;;11.30;99.90;;;;;;4988816;28;19921;-76
2022/10/30 05:37:52;;;;;;;;;;;11.30;99.90;;;;;;5005232;28;20343;-76
2022/10/30 05:40:17;;;;;;;;;;;11.40;99.90;;;;;;5002809;28;19936;-76
2022/10/30 05:42:53;;;;;;;;;;;11.40;99.90;;;;;;4998394;28;20645;-76
2022/10/30 05:45:19;;;;;;;;;;;11.40;99.90;;;;;;5014355;28;20278;-77
2022/10/30 05:47:54;;;;;;;;;;;11.50;99.90;;;;;;4999384;28;19975;-76
2022/10/30 05:50:22;;;;;;;;;;;11.50;99.90;;;;;;5004688;28;19960;-76
2022/10/30 05:52:49;;;;;;;;;;;11.50;99.90;;;;;;5001504;28;19910;-76
2022/10/30 05:55:15;;;;;;;;;;;11.50;99.90;;;;;;4994942;28;19921;-77
2022/10/30 05:57:42;;;;;;;;;;;11.50;99.90;;;;;;4999224;28;19916;-76
2022/10/30 06:00:13;;;;;;;;;;;11.50;99.90;;;;;;4998047;28;19953;-76
2022/10/30 06:02:38;;;;;;;;;;;11.50;99.90;;;;;;4998363;28;19996;-76
2022/10/30 06:05:05;;;;;;;;;;;11.50;99.90;;;;;;5003878;28;20033;-76
2022/10/30 06:07:32;;;;;;;;;;;11.50;99.90;;;;;;4998676;28;19909;-76
2022/10/30 06:10:01;;;;;;;;;;;11.50;99.90;;;;;;4995073;28;19960;-76
2022/10/30 06:12:27;;;;;;;;;;;11.60;99.90;;;;;;4985256;28;19916;-76
2022/10/30 06:14:57;;;;;;;;;;;11.50;99.90;;;;;;5000711;28;19909;-76
2022/10/30 06:17:25;;;;;;;;;;;11.50;99.90;;;;;;5006448;28;19910;-76
2022/10/30 06:19:58;;;;;;;;;;;11.50;99.90;;;;;;4998696;28;19932;-76
2022/10/30 06:22:33;;;;;;;;;;;11.60;99.90;;;;;;4994413;28;19961;-76
2022/10/30 06:25:01;;;;;;;;;;;11.60;99.90;;;;;;5002782;28;19975;-77
2022/10/30 06:27:34;;;;;;;;;;;11.70;99.90;;;;;;5000973;28;20009;-76
2022/10/30 06:30:03;;;;;;;;;;;11.70;99.90;;;;;;4999532;28;20375;-76
2022/10/30 06:32:29;;;;;;;;;;;11.70;99.90;;;;;;4979848;28;19910;-77
2022/10/30 06:34:56;;;;;;;;;;;11.70;99.90;;;;;;5002849;28;19920;-76
2022/10/30 06:37:23;;;;;;;;;;;11.70;99.90;;;;;;4998729;28;19948;-76
2022/10/30 06:39:54;;;;;;;;;;;11.70;99.90;;;;;;4996578;28;19953;-76
2022/10/30 06:42:22;;;;;;;;;;;11.70;99.90;;;;;;4987440;28;21439;-76
2022/10/30 06:44:47;;;;;;;;;;;11.70;99.90;;;;;;4994624;28;19977;-77
2022/10/30 06:47:15;;;;;;;;;;;11.60;99.90;;;;;;5000682;28;19956;-76
2022/10/30 06:49:42;;;;;;;;;;;11.60;99.90;;;;;;4984430;28;19965;-76
2022/10/30 06:52:09;;;;;;;;;;;11.60;99.90;;;;;;4983887;28;19918;-76
2022/10/30 06:54:37;;;;;;;;;;;11.70;99.90;;;;;;4998055;28;19918;-76
2022/10/30 06:57:03;;;;;;;;;;;11.60;99.90;;;;;;4994120;28;19909;-76
2022/10/30 06:59:34;;;;;;;;;;;11.70;99.90;;;;;;5001932;28;19909;-76
2022/10/30 07:01:59;;;;;;;;;;;11.70;99.90;;;;;;4994323;28;20319;-76
2022/10/30 07:04:25;;;;;;;;;;;11.80;99.90;;;;;;4996173;28;20031;-76
2022/10/30 07:06:53;;;;;;;;;;;11.90;99.90;;;;;;4996248;28;20278;-76
2022/10/30 07:09:20;;;;;;;;;;;11.90;99.90;;;;;;4997137;28;19972;-76
2022/10/30 07:11:47;;;;;;;;;;;12.00;99.90;;;;;;5003241;28;20013;-76
2022/10/30 07:14:14;;;;;;;;;;;12.10;99.90;;;;;;4998768;28;19917;-76
2022/10/30 07:16:40;;;;;;;;;;;12.20;99.90;;;;;;4997966;28;19917;-76
2022/10/30 07:19:11;;;;;;;;;;;12.10;99.90;;;;;;4997384;28;19917;-76
2022/10/30 07:21:38;;;;;;;;;;;12.10;99.90;;;;;;5004666;28;19959;-74
2022/10/30 07:24:03;;;;;;;;;;;12.10;99.90;;;;;;4997489;28;19924;-74
2022/10/30 07:26:32;;;;;;;;;;;12.00;99.90;;;;;;4996392;28;20258;-75
2022/10/30 07:28:57;;;;;;;;;;;12.00;99.90;;;;;;4997474;28;20358;-75
2022/10/30 07:31:29;;;;;;;;;;;11.90;99.90;;;;;;4996420;28;19910;-75
2022/10/30 07:33:54;;;;;;;;;;;12.00;99.90;;;;;;4990642;28;19945;-75
2022/10/30 07:36:20;;;;;;;;;;;12.10;99.90;;;;;;5006077;28;19949;-75
2022/10/30 07:38:51;;;;;;;;;;;12.10;99.90;;;;;;5001275;28;20552;-75
2022/10/30 07:41:17;;;;;;;;;;;12.30;99.90;;;;;;5001265;28;20000;-75
2022/10/30 07:43:42;;;;;;;;;;;12.30;99.90;;;;;;4998080;28;20647;-75
2022/10/30 07:46:08;;;;;;;;;;;12.30;99.90;;;;;;5001702;28;19996;-75
2022/10/30 07:48:34;;;;;;;;;;;12.40;99.90;;;;;;4996621;28;20298;-75
2022/10/30 07:51:03;;;;;;;;;;;12.40;99.90;;;;;;5010478;28;19916;-75
2022/10/30 07:53:35;;;;;;;;;;;12.40;99.90;;;;;;5001422;28;19910;-75
2022/10/30 07:56:01;;;;;;;;;;;12.40;99.90;;;;;;4998123;28;20355;-75
2022/10/30 07:58:29;;;;;;;;;;;12.30;99.90;;;;;;5005252;28;20000;-75
2022/10/30 08:00:55;;;;;;;;;;;12.20;99.90;;;;;;5000099;28;19914;-75
2022/10/30 08:03:28;;;;;;;;;;;12.20;99.90;;;;;;5001087;28;19909;-75
2022/10/30 08:05:54;;;;;;;;;;;12.10;99.90;;;;;;5000580;28;20363;-75
2022/10/30 08:08:23;;;;;;;;;;;12.20;99.90;;;;;;5012599;28;20016;-74
2022/10/30 08:10:51;;;;;;;;;;;12.00;99.90;;;;;;5000653;28;19925;-75
2022/10/30 08:13:26;;;;;;;;;;;12.00;99.90;;;;;;5000663;28;19916;-75
2022/10/30 08:15:56;;;;;;;;;;;12.00;99.90;;;;;;5003663;28;19992;-75
2022/10/30 08:18:30;;;;;;;;;;;12.20;99.90;;;;;;5009370;28;19905;-75
2022/10/30 08:21:04;;;;;;;;;;;12.30;99.90;;;;;;4998886;28;19917;-75
2022/10/30 08:23:32;;;;;;;;;;;12.20;99.90;;;;;;4999621;28;19960;-74
2022/10/30 08:26:00;;;;;;;;;;;12.20;99.90;;;;;;4999990;28;19909;-75
2022/10/30 08:28:30;;;;;;;;;;;12.10;99.90;;;;;;5010424;28;19993;-74
2022/10/30 08:30:56;;;;;;;;;;;12.00;99.90;;;;;;4997013;28;19909;-75
2022/10/30 08:33:26;;;;;;;;;;;12.00;99.90;;;;;;5002594;28;19911;-75
2022/10/30 08:35:56;;;;;;;;;;;11.90;99.90;;;;;;5004358;28;19957;-75
2022/10/30 08:38:24;;;;;;;;;;;11.90;99.90;;;;;;4982802;28;19924;-75
2022/10/30 08:40:51;;;;;;;;;;;11.80;99.90;;;;;;5011066;28;19913;-75
2022/10/30 08:43:17;;;;;;;;;;;11.90;99.90;;;;;;4983221;28;19910;-74
2022/10/30 08:45:44;;;;;;;;;;;12.10;99.90;;;;;;4999452;28;19913;-74
2022/10/30 08:48:12;;;;;;;;;;;12.20;99.90;;;;;;5000466;28;19925;-74
2022/10/30 08:50:42;;;;;;;;;;;12.40;99.90;;;;;;4994673;28;19936;-74
2022/10/30 08:53:14;;;;;;;;;;;12.50;99.90;;;;;;4999036;28;19940;-74
2022/10/30 08:55:41;;;;;;;;;;;12.70;99.90;;;;;;4999329;28;20021;-76
2022/10/30 08:58:12;;;;;;;;;;;12.80;99.90;;;;;;4999191;28;19917;-76
2022/10/30 09:00:37;;;;;;;;;;;13.00;99.90;;;;;;5007121;28;20369;-76
2022/10/30 09:03:03;;;;;;;;;;;13.00;99.90;;;;;;5009463;28;19924;-76
2022/10/30 09:05:36;;;;;;;;;;;13.00;99.90;;;;;;5004595;28;19916;-76
2022/10/30 09:08:02;;;;;;;;;;;13.00;99.90;;;;;;4999340;28;19987;-75
2022/10/30 09:10:28;;;;;;;;;;;13.10;99.90;;;;;;4995986;28;19996;-75
2022/10/30 09:12:56;;;;;;;;;;;13.20;99.90;;;;;;5010701;28;20457;-75
2022/10/30 09:15:30;;;;;;;;;;;13.40;99.90;;;;;;4995096;28;20313;-76
2022/10/30 09:18:03;;;;;;;;;;;13.50;99.90;;;;;;5006754;28;19920;-75
2022/10/30 09:20:35;;;;;;;;;;;13.60;99.90;;;;;;4999219;28;19963;-75
2022/10/30 09:23:03;;;;;;;;;;;13.50;99.90;;;;;;5006987;28;20018;-75
2022/10/30 09:25:35;;;;;;;;;;;13.10;99.90;;;;;;4996084;28;20012;-75
2022/10/30 09:28:02;;;;;;;;;;;13.00;99.90;;;;;;5003645;28;19913;-75
2022/10/30 09:30:29;;;;;;;;;;;12.90;99.90;;;;;;4999155;28;19914;-75
2022/10/30 09:33:01;;;;;;;;;;;13.00;99.90;;;;;;4998538;28;20054;-74
2022/10/30 09:35:27;;;;;;;;;;;13.00;99.90;;;;;;5001088;28;19910;-75
2022/10/30 09:38:05;;;;;;;;;;;13.10;99.90;;;;;;4999354;28;20000;-75
2022/10/30 09:40:31;;;;;;;;;;;13.20;99.90;;;;;;4997577;28;19921;-75
2022/10/30 09:43:02;;;;;;;;;;;13.40;99.90;;;;;;5001293;28;19963;-75
2022/10/30 09:45:40;;;;;;;;;;;13.60;99.90;;;;;;4999340;28;20359;-75
2022/10/30 09:48:12;;;;;;;;;;;13.60;99.90;;;;;;5002822;28;20008;-75
2022/10/30 09:50:58;;;;;;;;;;;13.50;99.90;;;;;;4998882;28;19996;-75
2022/10/30 09:53:32;;;;;;;;;;;13.50;99.90;;;;;;4998558;28;19910;-75
2022/10/30 09:56:04;;;;;;;;;;;13.10;99.90;;;;;;4994327;28;20778;-75
2022/10/30 09:58:30;;;;;;;;;;;13.40;99.90;;;;;;4999028;28;19955;-75
2022/10/30 10:01:09;;;;;;;;;;;13.80;99.90;;;;;;5000611;28;19924;-75
2022/10/30 10:03:53;;;;;;;;;;;14.10;99.90;;;;;;4999302;28;20016;-75
2022/10/30 10:06:23;;;;;;;;;;;14.40;99.90;;;;;;5002678;28;19992;-75
2022/10/30 10:09:13;;;;;;;;;;;14.50;99.90;;;;;;5004230;28;19945;-75
2022/10/30 10:11:39;;;;;;;;;;;14.40;99.90;;;;;;5001637;28;19922;-74
2022/10/30 10:14:14;;;;;;;;;;;14.20;99.90;;;;;;4998336;28;20079;-74
2022/10/30 10:16:48;;;;;;;;;;;13.40;99.90;;;;;;4998520;28;20012;-75
2022/10/30 10:19:35;;;;;;;;;;;13.20;99.90;;;;;;4999758;28;20012;-74
2022/10/30 10:22:02;;;;;;;;;;;13.40;99.90;;;;;;4993515;28;19913;-74
2022/10/30 10:24:31;;;;;;;;;;;13.40;99.90;;;;;;5000441;28;20176;-74
2022/10/30 10:27:01;;;;;;;;;;;13.50;99.90;;;;;;4997960;28;20376;-75
2022/10/30 10:29:51;;;;;;;;;;;13.60;99.90;;;;;;4998787;28;20673;-74
2022/10/30 10:32:29;;;;;;;;;;;13.70;99.90;;;;;;4997943;28;19987;-75
2022/10/30 10:35:00;;;;;;;;;;;13.80;99.90;;;;;;4996426;28;19921;-76
2022/10/30 10:37:46;;;;;;;;;;;13.90;99.90;;;;;;5000923;28;19989;-75
2022/10/30 10:40:15;;;;;;;;;;;14.00;99.90;;;;;;5003877;28;19976;-75
2022/10/30 10:43:00;;;;;;;;;;;14.20;99.90;;;;;;4993741;28;19956;-76
2022/10/30 10:45:40;;;;;;;;;;;14.30;99.90;;;;;;4997680;28;19953;-75
2022/10/30 10:48:18;;;;;;;;;;;14.30;99.90;;;;;;5005584;28;19932;-75
2022/10/30 10:51:00;;;;;;;;;;;14.30;99.90;;;;;;4997991;28;20015;-75
2022/10/30 10:53:46;;;;;;;;;;;14.40;99.90;;;;;;4997914;28;19992;-75
2022/10/30 10:56:13;;;;;;;;;;;14.60;99.90;;;;;;4994373;28;19970;-75
2022/10/30 10:58:45;;;;;;;;;;;14.50;99.90;;;;;;5001769;28;19918;-75
2022/10/30 11:01:39;;;;;;;;;;;14.40;99.90;;;;;;5001720;28;20103;-75
2022/10/30 11:04:10;;;;;;;;;;;14.40;99.90;;;;;;4995888;28;19917;-75
2022/10/30 11:06:45;;;;;;;;;;;14.60;99.90;;;;;;4998881;28;19917;-75
2022/10/30 11:09:12;;;;;;;;;;;14.60;99.90;;;;;;5001008;28;19918;-75
2022/10/30 11:11:39;;;;;;;;;;;14.80;99.90;;;;;;5009092;28;20551;-76
2022/10/30 11:14:14;;;;;;;;;;;15.00;99.90;;;;;;4997510;28;20345;-75
2022/10/30 11:16:59;;;;;;;;;;;15.00;99.90;;;;;;5001572;28;19913;-75
2022/10/30 11:19:27;;;;;;;;;;;15.00;99.90;;;;;;5012190;28;19921;-75
2022/10/30 11:21:55;;;;;;;;;;;15.00;99.90;;;;;;5011163;28;19921;-75
2022/10/30 11:24:34;;;;;;;;;;;15.30;99.90;;;;;;4998301;28;20359;-75
2022/10/30 11:27:20;;;;;;;;;;;15.60;99.90;;;;;;5001732;28;20075;-75
2022/10/30 11:29:51;;;;;;;;;;;15.70;99.90;;;;;;4997394;28;20212;-76
2022/10/30 11:32:21;;;;;;;;;;;15.40;99.90;;;;;;5000483;28;20291;-76
2022/10/30 11:35:09;;;;;;;;;;;15.40;99.90;;;;;;5001555;28;19909;-76
2022/10/30 11:37:37;;;;;;;;;;;15.40;99.90;;;;;;4988935;28;19949;-75
2022/10/30 11:40:06;;;;;;;;;;;15.50;99.90;;;;;;5001296;28;19920;-76
2022/10/30 11:42:33;;;;;;;;;;;15.30;99.90;;;;;;5001486;28;20389;-75
2022/10/30 11:45:02;;;;;;;;;;;15.50;99.90;;;;;;4984684;28;19909;-75
2022/10/30 11:47:33;;;;;;;;;;;15.60;99.90;;;;;;5002875;28;19951;-75
2022/10/30 11:50:06;;;;;;;;;;;15.80;99.90;;;;;;5001758;28;19975;-75
2022/10/30 11:52:39;;;;;;;;;;;15.80;99.90;;;;;;4989302;28;19909;-75
2022/10/30 11:55:11;;;;;;;;;;;15.90;99.90;;;;;;5000991;28;19983;-76
2022/10/30 11:57:43;;;;;;;;;;;16.00;99.90;;;;;;5001570;28;19917;-75
2022/10/30 12:00:16;;;;;;;;;;;16.10;99.90;;;;;;5001337;28;19956;-75
2022/10/30 12:02:54;;;;;;;;;;;16.10;99.90;;;;;;5006065;28;20068;-76
2022/10/30 12:05:26;;;;;;;;;;;16.30;99.90;;;;;;4984395;28;19910;-76
2022/10/30 12:08:06;;;;;;;;;;;16.60;99.90;;;;;;5001006;28;19920;-75
2022/10/30 12:10:38;;;;;;;;;;;16.40;99.90;;;;;;4998195;28;19988;-75
2022/10/30 12:13:13;;;;;;;;;;;16.20;99.90;;;;;;5001267;28;19917;-76
2022/10/30 12:15:39;;;;;;;;;;;16.20;99.90;;;;;;5004988;28;19918;-75
2022/10/30 12:18:05;;;;;;;;;;;15.90;99.90;;;;;;5000466;28;20283;-76
2022/10/30 12:20:35;;;;;;;;;;;15.70;99.90;;;;;;4999994;28;20056;-76
2022/10/30 12:23:15;;;;;;;;;;;15.90;99.90;;;;;;5003081;28;19913;-76
2022/10/30 12:25:49;;;;;;;;;;;16.00;99.90;;;;;;5001916;28;19979;-76
2022/10/30 12:28:17;;;;;;;;;;;16.10;99.90;;;;;;5003240;28;19919;-76
2022/10/30 12:31:04;;;;;;;;;;;16.00;99.90;;;;;;4985490;28;20350;-76
2022/10/30 12:33:39;;;;;;;;;;;15.90;99.90;;;;;;4989893;28;19964;-76
2022/10/30 12:36:08;;;;;;;;;;;15.90;99.90;;;;;;4985452;28;19921;-76
2022/10/30 12:38:52;;;;;;;;;;;16.00;99.90;;;;;;4995711;28;20157;-75
2022/10/30 12:41:39;;;;;;;;;;;15.90;99.90;;;;;;4998209;28;19921;-75
2022/10/30 12:44:11;;;;;;;;;;;15.90;99.90;;;;;;5005346;28;20011;-76
2022/10/30 12:46:47;;;;;;;;;;;15.90;99.90;;;;;;4999921;28;20463;-75
2022/10/30 12:49:21;;;;;;;;;;;15.90;99.90;;;;;;5003886;28;21266;-75
2022/10/30 12:51:58;;;;;;;;;;;15.50;99.90;;;;;;5004499;28;19910;-75
2022/10/30 12:54:38;;;;;;;;;;;15.40;99.90;;;;;;4995592;28;20434;-75
2022/10/30 12:57:11;;;;;;;;;;;15.10;99.90;;;;;;5001123;28;20390;-75
2022/10/30 12:59:55;;;;;;;;;;;15.00;99.90;;;;;;4998127;28;19967;-75
2022/10/30 13:02:41;;;;;;;;;;;14.90;99.90;;;;;;4992876;28;19936;-76
2022/10/30 13:05:28;;;;;;;;;;;14.90;99.90;;;;;;4999133;28;19923;-76
2022/10/30 13:08:15;;;;;;;;;;;14.80;99.90;;;;;;5006901;28;19936;-75
2022/10/30 13:10:45;;;;;;;;;;;14.70;99.90;;;;;;4927447;28;19919;-76
2022/10/30 13:13:28;;;;;;;;;;;14.80;99.90;;;;;;4995694;28;19918;-75
2022/10/30 13:15:57;;;;;;;;;;;14.70;99.90;;;;;;4996708;28;19913;-76
2022/10/30 13:18:23;;;;;;;;;;;14.60;99.90;;;;;;4997857;28;19933;-76
2022/10/30 13:21:00;;;;;;;;;;;14.60;99.90;;;;;;4983174;28;19921;-75
2022/10/30 13:23:51;;;;;;;;;;;14.50;99.90;;;;;;4998613;28;19971;-75
2022/10/30 13:26:32;;;;;;;;;;;14.60;99.90;;;;;;5005145;28;20498;-76
2022/10/30 13:29:10;;;;;;;;;;;14.60;99.90;;;;;;4997376;28;20021;-77
2022/10/30 13:31:57;;;;;;;;;;;14.50;99.90;;;;;;4996496;28;19935;-77
2022/10/30 13:34:26;;;;;;;;;;;14.40;99.90;;;;;;4995561;28;19971;-77
2022/10/30 13:37:04;;;;;;;;;;;14.30;99.90;;;;;;5002305;28;19919;-77
2022/10/30 13:39:45;;;;;;;;;;;14.30;99.90;;;;;;4993449;28;19913;-76
2022/10/30 13:42:35;;;;;;;;;;;14.40;99.90;;;;;;4985422;28;20056;-76
2022/10/30 13:48:06;;;;;;;;;;;14.30;99.90;;;;;;4999301;28;19917;-75
2022/10/30 13:50:37;;;;;;;;;;;14.30;99.90;;;;;;4994943;28;20470;-76
2022/10/30 13:53:12;;;;;;;;;;;14.40;99.90;;;;;;5004925;28;20167;-76
2022/10/30 13:55:40;;;;;;;;;;;14.40;99.90;;;;;;4994507;28;19992;-76
2022/10/30 13:58:14;;;;;;;;;;;14.40;99.90;;;;;;4998801;28;19924;-76
2022/10/30 14:00:57;;;;;;;;;;;14.40;99.90;;;;;;4998303;28;20268;-76
2022/10/30 14:03:44;;;;;;;;;;;14.40;99.90;;;;;;4998821;28;19917;-75
2022/10/30 14:06:15;;;;;;;;;;;14.40;99.90;;;;;;4999137;28;19972;-76
2022/10/30 14:08:49;;;;;;;;;;;14.30;99.90;;;;;;4998936;28;19971;-75
2022/10/30 14:11:15;;;;;;;;;;;14.20;99.90;;;;;;4994993;28;19914;-75
2022/10/30 14:13:45;;;;;;;;;;;14.10;99.90;;;;;;4998841;28;21573;-75
2022/10/30 14:16:49;;;;;;;;;;;14.00;99.90;;;;;;4998509;28;19920;-75
2022/10/30 14:19:16;;;;;;;;;;;14.00;99.90;;;;;;4946696;28;19954;-74
2022/10/30 14:21:54;;;;;;;;;;;14.00;99.90;;;;;;4946722;28;19919;-75
2022/10/30 14:24:22;;;;;;;;;;;14.00;99.90;;;;;;4979243;28;20475;-75
2022/10/30 14:26:49;;;;;;;;;;;13.90;99.90;;;;;;5004741;28;19940;-74
2022/10/30 14:29:38;;;;;;;;;;;13.80;99.90;;;;;;4999329;28;19979;-76
2022/10/30 14:32:14;;;;;;;;;;;13.80;99.90;;;;;;4999678;28;19956;-76
2022/10/30 14:34:49;;;;;;;;;;;13.80;99.90;;;;;;5006387;28;20596;-76
2022/10/30 14:37:25;;;;;;;;;;;13.70;99.90;;;;;;4994370;28;20775;-76
2022/10/30 14:39:55;;;;;;;;;;;13.60;99.90;;;;;;5004124;28;19963;-75
2022/10/30 14:42:26;;;;;;;;;;;13.40;99.90;;;;;;5000294;28;19910;-76